sensor_id;sensor_type;location;lat;lon;timestamp;temperature;humidity
46488;DHT22;32202;48.780;9.204;2023-03-23T00:01:53;15.00;57.30
46488;DHT22;32202;48.780;9.204;2023-03-23T00:04:19;15.00;57.50
46488;DHT22;32202;48.780;9.204;2023-03-23T00:06:47;15.10;57.20
46488;DHT22;32202;48.780;9.204;2023-03-23T00:09:14;15.10;57.20
46488;DHT22;32202;48.780;9.204;2023-03-23T00:11:40;15.10;57.00
46488;DHT22;32202;48.780;9.204;2023-03-23T00:14:06;15.10;57.20
46488;DHT22;32202;48.780;9.204;2023-03-23T00:16:38;15.20;57.30
46488;DHT22;32202;48.780;9.204;2023-03-23T00:19:10;15.20;57.20
46488;DHT22;32202;48.780;9.204;2023-03-23T00:21:38;15.10;57.40
46488;DHT22;32202;48.780;9.204;2023-03-23T00:24:08;15.10;57.30
46488;DHT22;32202;48.780;9.204;2023-03-23T00:26:38;15.10;57.40
46488;DHT22;32202;48.780;9.204;2023-03-23T00:29:12;15.10;57.50
46488;DHT22;32202;48.780;9.204;2023-03-23T00:31:41;15.00;57.60
46488;DHT22;32202;48.780;9.204;2023-03-23T00:34:13;15.00;57.70
46488;DHT22;32202;48.780;9.204;2023-03-23T00:36:43;15.00;57.70
46488;DHT22;32202;48.780;9.204;2023-03-23T00:39:10;15.00;57.70
46488;DHT22;32202;48.780;9.204;2023-03-23T00:41:35;15.00;57.80
46488;DHT22;32202;48.780;9.204;2023-03-23T00:44:01;14.90;58.00
46488;DHT22;32202;48.780;9.204;2023-03-23T00:46:27;14.90;58.00
46488;DHT22;32202;48.780;9.204;2023-03-23T00:48:54;14.90;57.80
46488;DHT22;32202;48.780;9.204;2023-03-23T00:51:20;14.90;57.90
46488;DHT22;32202;48.780;9.204;2023-03-23T00:53:46;14.90;57.90
46488;DHT22;32202;48.780;9.204;2023-03-23T00:56:12;14.80;58.00
46488;DHT22;32202;48.780;9.204;2023-03-23T00:58:38;14.80;57.90
46488;DHT22;32202;48.780;9.204;2023-03-23T01:01:04;14.90;58.00
46488;DHT22;32202;48.780;9.204;2023-03-23T01:03:29;14.80;57.90
46488;DHT22;32202;48.780;9.204;2023-03-23T01:05:55;14.80;57.90
46488;DHT22;32202;48.780;9.204;2023-03-23T01:08:21;14.80;58.00
46488;DHT22;32202;48.780;9.204;2023-03-23T01:10:47;14.80;58.00
46488;DHT22;32202;48.780;9.204;2023-03-23T01:13:13;14.80;58.00
46488;DHT22;32202;48.780;9.204;2023-03-23T01:15:39;14.80;58.10
46488;DHT22;32202;48.780;9.204;2023-03-23T01:18:04;14.80;58.00
46488;DHT22;32202;48.780;9.204;2023-03-23T01:20:30;14.80;58.10
46488;DHT22;32202;48.780;9.204;2023-03-23T01:22:59;14.70;58.10
46488;DHT22;32202;48.780;9.204;2023-03-23T01:25:28;14.70;58.20
46488;DHT22;32202;48.780;9.204;2023-03-23T01:27:54;14.60;58.20
46488;DHT22;32202;48.780;9.204;2023-03-23T01:30:20;14.70;57.90
46488;DHT22;32202;48.780;9.204;2023-03-23T01:32:46;14.60;57.90
46488;DHT22;32202;48.780;9.204;2023-03-23T01:35:14;14.60;57.70
46488;DHT22;32202;48.780;9.204;2023-03-23T01:37:40;14.60;58.40
46488;DHT22;32202;48.780;9.204;2023-03-23T01:40:06;14.60;57.80
46488;DHT22;32202;48.780;9.204;2023-03-23T01:42:32;14.60;57.80
46488;DHT22;32202;48.780;9.204;2023-03-23T01:47:42;14.60;57.90
46488;DHT22;32202;48.780;9.204;2023-03-23T01:50:08;14.60;58.00
46488;DHT22;32202;48.780;9.204;2023-03-23T01:52:33;14.60;58.00
46488;DHT22;32202;48.780;9.204;2023-03-23T01:55:01;14.60;58.00
46488;DHT22;32202;48.780;9.204;2023-03-23T01:57:27;14.60;58.20
46488;DHT22;32202;48.780;9.204;2023-03-23T01:59:53;14.60;58.20
46488;DHT22;32202;48.780;9.204;2023-03-23T02:02:20;14.60;58.50
46488;DHT22;32202;48.780;9.204;2023-03-23T02:04:46;14.60;58.80
46488;DHT22;32202;48.780;9.204;2023-03-23T02:07:12;14.60;58.90
46488;DHT22;32202;48.780;9.204;2023-03-23T02:09:39;14.60;58.90
46488;DHT22;32202;48.780;9.204;2023-03-23T02:12:04;14.60;58.90
46488;DHT22;32202;48.780;9.204;2023-03-23T02:14:30;14.60;59.10
46488;DHT22;32202;48.780;9.204;2023-03-23T02:17:02;14.60;59.00
46488;DHT22;32202;48.780;9.204;2023-03-23T02:25:02;14.60;60.00
46488;DHT22;32202;48.780;9.204;2023-03-23T02:27:52;14.60;60.00
46488;DHT22;32202;48.780;9.204;2023-03-23T02:33:28;14.60;59.50
46488;DHT22;32202;48.780;9.204;2023-03-23T02:36:00;14.70;59.20
46488;DHT22;32202;48.780;9.204;2023-03-23T02:39:12;14.70;59.80
46488;DHT22;32202;48.780;9.204;2023-03-23T02:41:17;14.60;59.80
46488;DHT22;32202;48.780;9.204;2023-03-23T02:43:44;14.60;59.90
46488;DHT22;32202;48.780;9.204;2023-03-23T02:46:11;14.60;60.00
46488;DHT22;32202;48.780;9.204;2023-03-23T02:48:38;14.70;60.20
46488;DHT22;32202;48.780;9.204;2023-03-23T02:51:05;14.70;60.20
46488;DHT22;32202;48.780;9.204;2023-03-23T02:53:31;14.70;60.30
46488;DHT22;32202;48.780;9.204;2023-03-23T02:55:59;14.70;60.30
46488;DHT22;32202;48.780;9.204;2023-03-23T02:58:28;14.60;60.70
46488;DHT22;32202;48.780;9.204;2023-03-23T03:00:55;14.50;61.00
46488;DHT22;32202;48.780;9.204;2023-03-23T03:03:22;14.50;61.10
46488;DHT22;32202;48.780;9.204;2023-03-23T03:11:11;14.50;60.70
46488;DHT22;32202;48.780;9.204;2023-03-23T03:13:52;14.50;61.50
46488;DHT22;32202;48.780;9.204;2023-03-23T03:18:52;14.40;61.00
46488;DHT22;32202;48.780;9.204;2023-03-23T03:21:20;14.50;62.10
46488;DHT22;32202;48.780;9.204;2023-03-23T03:23:50;14.40;62.10
46488;DHT22;32202;48.780;9.204;2023-03-23T03:26:18;14.40;62.30
46488;DHT22;32202;48.780;9.204;2023-03-23T03:28:46;14.40;62.80
46488;DHT22;32202;48.780;9.204;2023-03-23T03:31:17;14.40;63.30
46488;DHT22;32202;48.780;9.204;2023-03-23T03:33:43;14.30;63.20
46488;DHT22;32202;48.780;9.204;2023-03-23T03:36:14;14.30;63.30
46488;DHT22;32202;48.780;9.204;2023-03-23T03:38:44;14.30;63.30
46488;DHT22;32202;48.780;9.204;2023-03-23T03:41:10;14.40;62.60
46488;DHT22;32202;48.780;9.204;2023-03-23T03:43:35;14.40;62.40
46488;DHT22;32202;48.780;9.204;2023-03-23T03:46:01;14.40;62.70
46488;DHT22;32202;48.780;9.204;2023-03-23T03:48:27;14.40;62.40
46488;DHT22;32202;48.780;9.204;2023-03-23T03:50:52;14.40;62.30
46488;DHT22;32202;48.780;9.204;2023-03-23T03:53:24;14.50;62.40
46488;DHT22;32202;48.780;9.204;2023-03-23T03:55:50;14.50;62.00
46488;DHT22;32202;48.780;9.204;2023-03-23T03:58:16;14.50;62.40
46488;DHT22;32202;48.780;9.204;2023-03-23T04:00:42;14.50;62.10
46488;DHT22;32202;48.780;9.204;2023-03-23T04:03:08;14.60;61.80
46488;DHT22;32202;48.780;9.204;2023-03-23T04:05:34;14.50;61.90
46488;DHT22;32202;48.780;9.204;2023-03-23T04:07:59;14.50;62.30
46488;DHT22;32202;48.780;9.204;2023-03-23T04:10:27;14.40;62.60
46488;DHT22;32202;48.780;9.204;2023-03-23T04:12:53;14.40;62.90
46488;DHT22;32202;48.780;9.204;2023-03-23T04:15:18;14.30;63.00
46488;DHT22;32202;48.780;9.204;2023-03-23T04:17:44;14.30;63.10
46488;DHT22;32202;48.780;9.204;2023-03-23T04:20:10;14.30;62.90
46488;DHT22;32202;48.780;9.204;2023-03-23T04:22:45;14.30;63.20
46488;DHT22;32202;48.780;9.204;2023-03-23T04:25:15;14.30;63.60
46488;DHT22;32202;48.780;9.204;2023-03-23T04:27:41;14.30;63.60
46488;DHT22;32202;48.780;9.204;2023-03-23T04:30:11;14.40;63.30
46488;DHT22;32202;48.780;9.204;2023-03-23T04:32:38;14.30;63.40
46488;DHT22;32202;48.780;9.204;2023-03-23T04:35:07;14.30;63.70
46488;DHT22;32202;48.780;9.204;2023-03-23T04:37:33;14.30;63.40
46488;DHT22;32202;48.780;9.204;2023-03-23T04:39:59;14.30;63.30
46488;DHT22;32202;48.780;9.204;2023-03-23T04:42:38;14.30;63.50
46488;DHT22;32202;48.780;9.204;2023-03-23T04:45:04;14.40;62.90
46488;DHT22;32202;48.780;9.204;2023-03-23T04:47:32;14.40;63.20
46488;DHT22;32202;48.780;9.204;2023-03-23T04:49:58;14.50;63.40
46488;DHT22;32202;48.780;9.204;2023-03-23T04:52:27;14.50;62.90
46488;DHT22;32202;48.780;9.204;2023-03-23T04:54:54;14.50;62.00
46488;DHT22;32202;48.780;9.204;2023-03-23T04:57:23;14.60;62.30
46488;DHT22;32202;48.780;9.204;2023-03-23T04:59:53;14.60;62.00
46488;DHT22;32202;48.780;9.204;2023-03-23T05:02:18;14.70;61.70
46488;DHT22;32202;48.780;9.204;2023-03-23T05:04:44;14.70;61.70
46488;DHT22;32202;48.780;9.204;2023-03-23T05:07:10;14.70;61.50
46488;DHT22;32202;48.780;9.204;2023-03-23T05:09:36;14.70;61.40
46488;DHT22;32202;48.780;9.204;2023-03-23T05:12:05;14.80;61.30
46488;DHT22;32202;48.780;9.204;2023-03-23T05:14:31;14.80;61.20
46488;DHT22;32202;48.780;9.204;2023-03-23T05:16:56;14.80;61.00
46488;DHT22;32202;48.780;9.204;2023-03-23T05:19:22;14.80;61.10
46488;DHT22;32202;48.780;9.204;2023-03-23T05:21:47;14.80;61.10
46488;DHT22;32202;48.780;9.204;2023-03-23T05:24:13;14.80;61.20
46488;DHT22;32202;48.780;9.204;2023-03-23T05:26:38;14.80;61.20
46488;DHT22;32202;48.780;9.204;2023-03-23T05:29:04;14.80;61.20
46488;DHT22;32202;48.780;9.204;2023-03-23T05:31:30;14.80;60.70
46488;DHT22;32202;48.780;9.204;2023-03-23T05:33:55;14.80;60.80
46488;DHT22;32202;48.780;9.204;2023-03-23T05:36:21;14.90;61.00
46488;DHT22;32202;48.780;9.204;2023-03-23T05:38:50;14.90;60.70
46488;DHT22;32202;48.780;9.204;2023-03-23T05:41:16;14.90;60.80
46488;DHT22;32202;48.780;9.204;2023-03-23T05:43:41;14.90;61.20
46488;DHT22;32202;48.780;9.204;2023-03-23T05:46:07;15.00;60.40
46488;DHT22;32202;48.780;9.204;2023-03-23T05:48:33;15.00;60.60
46488;DHT22;32202;48.780;9.204;2023-03-23T05:50:59;15.00;60.20
46488;DHT22;32202;48.780;9.204;2023-03-23T05:53:25;15.00;60.40
46488;DHT22;32202;48.780;9.204;2023-03-23T05:55:51;15.00;60.40
46488;DHT22;32202;48.780;9.204;2023-03-23T05:58:16;15.00;60.30
46488;DHT22;32202;48.780;9.204;2023-03-23T06:00:42;15.00;60.20
46488;DHT22;32202;48.780;9.204;2023-03-23T06:03:07;15.10;60.20
46488;DHT22;32202;48.780;9.204;2023-03-23T06:05:33;15.10;60.20
46488;DHT22;32202;48.780;9.204;2023-03-23T06:07:58;15.20;60.00
46488;DHT22;32202;48.780;9.204;2023-03-23T06:10:24;15.20;59.80
46488;DHT22;32202;48.780;9.204;2023-03-23T06:12:50;15.30;59.90
46488;DHT22;32202;48.780;9.204;2023-03-23T06:15:17;15.30;60.00
46488;DHT22;32202;48.780;9.204;2023-03-23T06:17:42;15.40;59.40
46488;DHT22;32202;48.780;9.204;2023-03-23T06:20:08;15.40;59.50
46488;DHT22;32202;48.780;9.204;2023-03-23T06:22:38;15.40;59.50
46488;DHT22;32202;48.780;9.204;2023-03-23T06:25:08;15.40;59.60
46488;DHT22;32202;48.780;9.204;2023-03-23T06:27:34;15.40;59.40
46488;DHT22;32202;48.780;9.204;2023-03-23T06:30:00;15.30;59.50
46488;DHT22;32202;48.780;9.204;2023-03-23T06:32:27;15.40;59.70
46488;DHT22;32202;48.780;9.204;2023-03-23T06:34:54;15.40;59.60
46488;DHT22;32202;48.780;9.204;2023-03-23T06:37:19;15.40;59.70
46488;DHT22;32202;48.780;9.204;2023-03-23T06:39:46;15.40;59.80
46488;DHT22;32202;48.780;9.204;2023-03-23T06:42:11;15.30;60.40
46488;DHT22;32202;48.780;9.204;2023-03-23T06:44:37;15.30;60.20
46488;DHT22;32202;48.780;9.204;2023-03-23T06:47:03;15.30;60.10
46488;DHT22;32202;48.780;9.204;2023-03-23T06:49:28;15.30;60.10
46488;DHT22;32202;48.780;9.204;2023-03-23T06:51:54;15.30;60.60
46488;DHT22;32202;48.780;9.204;2023-03-23T06:54:21;15.30;60.40
46488;DHT22;32202;48.780;9.204;2023-03-23T06:56:47;15.30;60.10
46488;DHT22;32202;48.780;9.204;2023-03-23T06:59:12;15.50;60.00
46488;DHT22;32202;48.780;9.204;2023-03-23T07:01:38;15.60;59.80
46488;DHT22;32202;48.780;9.204;2023-03-23T07:04:04;15.80;59.60
46488;DHT22;32202;48.780;9.204;2023-03-23T07:06:30;16.00;59.60
46488;DHT22;32202;48.780;9.204;2023-03-23T07:08:56;16.20;58.50
46488;DHT22;32202;48.780;9.204;2023-03-23T07:11:21;16.30;58.60
46488;DHT22;32202;48.780;9.204;2023-03-23T07:13:47;16.30;58.30
46488;DHT22;32202;48.780;9.204;2023-03-23T07:16:13;16.30;58.30
46488;DHT22;32202;48.780;9.204;2023-03-23T07:18:39;16.30;58.20
46488;DHT22;32202;48.780;9.204;2023-03-23T07:21:05;16.30;58.40
46488;DHT22;32202;48.780;9.204;2023-03-23T07:23:31;16.20;58.40
46488;DHT22;32202;48.780;9.204;2023-03-23T07:25:56;16.20;58.70
46488;DHT22;32202;48.780;9.204;2023-03-23T07:28:22;16.20;58.70
46488;DHT22;32202;48.780;9.204;2023-03-23T07:30:47;16.20;58.80
46488;DHT22;32202;48.780;9.204;2023-03-23T07:33:13;16.20;59.30
46488;DHT22;32202;48.780;9.204;2023-03-23T07:35:38;16.10;59.10
46488;DHT22;32202;48.780;9.204;2023-03-23T07:38:04;16.00;59.60
46488;DHT22;32202;48.780;9.204;2023-03-23T07:40:30;16.10;59.70
46488;DHT22;32202;48.780;9.204;2023-03-23T07:42:59;16.00;59.50
46488;DHT22;32202;48.780;9.204;2023-03-23T07:45:24;16.10;59.20
46488;DHT22;32202;48.780;9.204;2023-03-23T07:47:50;16.10;59.30
46488;DHT22;32202;48.780;9.204;2023-03-23T07:50:16;16.20;59.60
46488;DHT22;32202;48.780;9.204;2023-03-23T07:52:43;16.30;59.10
46488;DHT22;32202;48.780;9.204;2023-03-23T07:55:09;16.30;59.00
46488;DHT22;32202;48.780;9.204;2023-03-23T07:57:46;16.30;58.90
46488;DHT22;32202;48.780;9.204;2023-03-23T08:00:12;16.40;58.90
46488;DHT22;32202;48.780;9.204;2023-03-23T08:02:44;16.50;58.80
46488;DHT22;32202;48.780;9.204;2023-03-23T08:05:10;16.90;58.30
46488;DHT22;32202;48.780;9.204;2023-03-23T08:07:38;17.20;57.80
46488;DHT22;32202;48.780;9.204;2023-03-23T08:10:04;17.40;57.50
46488;DHT22;32202;48.780;9.204;2023-03-23T08:12:30;17.30;57.50
46488;DHT22;32202;48.780;9.204;2023-03-23T08:14:55;17.30;57.50
46488;DHT22;32202;48.780;9.204;2023-03-23T08:17:21;17.30;57.80
46488;DHT22;32202;48.780;9.204;2023-03-23T08:19:47;17.20;58.20
46488;DHT22;32202;48.780;9.204;2023-03-23T08:22:12;17.10;58.40
46488;DHT22;32202;48.780;9.204;2023-03-23T08:24:38;17.10;58.70
46488;DHT22;32202;48.780;9.204;2023-03-23T08:27:04;17.10;59.00
46488;DHT22;32202;48.780;9.204;2023-03-23T08:29:31;17.20;59.30
46488;DHT22;32202;48.780;9.204;2023-03-23T08:31:58;17.60;58.80
46488;DHT22;32202;48.780;9.204;2023-03-23T08:34:23;17.70;58.60
46488;DHT22;32202;48.780;9.204;2023-03-23T08:36:49;17.80;58.20
46488;DHT22;32202;48.780;9.204;2023-03-23T08:39:16;18.00;58.00
46488;DHT22;32202;48.780;9.204;2023-03-23T08:41:43;17.80;58.30
46488;DHT22;32202;48.780;9.204;2023-03-23T08:44:09;17.80;58.90
46488;DHT22;32202;48.780;9.204;2023-03-23T08:46:35;17.90;58.70
46488;DHT22;32202;48.780;9.204;2023-03-23T08:49:00;17.60;59.50
46488;DHT22;32202;48.780;9.204;2023-03-23T08:51:26;17.60;60.00
46488;DHT22;32202;48.780;9.204;2023-03-23T08:53:51;17.50;60.20
46488;DHT22;32202;48.780;9.204;2023-03-23T08:56:17;17.40;60.70
46488;DHT22;32202;48.780;9.204;2023-03-23T08:58:43;17.10;61.40
46488;DHT22;32202;48.780;9.204;2023-03-23T09:01:08;16.90;62.20
46488;DHT22;32202;48.780;9.204;2023-03-23T09:03:34;16.80;62.60
46488;DHT22;32202;48.780;9.204;2023-03-23T09:06:05;16.70;62.80
46488;DHT22;32202;48.780;9.204;2023-03-23T09:08:31;16.70;63.00
46488;DHT22;32202;48.780;9.204;2023-03-23T09:11:00;16.90;62.80
46488;DHT22;32202;48.780;9.204;2023-03-23T09:13:26;17.10;62.40
46488;DHT22;32202;48.780;9.204;2023-03-23T09:15:51;17.50;62.00
46488;DHT22;32202;48.780;9.204;2023-03-23T09:18:17;18.00;60.50
46488;DHT22;32202;48.780;9.204;2023-03-23T09:20:43;18.20;59.60
46488;DHT22;32202;48.780;9.204;2023-03-23T09:23:09;18.10;59.40
46488;DHT22;32202;48.780;9.204;2023-03-23T09:25:35;18.20;59.30
46488;DHT22;32202;48.780;9.204;2023-03-23T09:28:00;18.40;59.10
46488;DHT22;32202;48.780;9.204;2023-03-23T09:30:27;18.50;58.50
46488;DHT22;32202;48.780;9.204;2023-03-23T09:32:53;18.60;58.10
46488;DHT22;32202;48.780;9.204;2023-03-23T09:35:20;18.50;58.00
46488;DHT22;32202;48.780;9.204;2023-03-23T09:37:47;18.50;58.80
46488;DHT22;32202;48.780;9.204;2023-03-23T09:40:22;18.30;58.80
46488;DHT22;32202;48.780;9.204;2023-03-23T09:45:25;17.70;60.40
46488;DHT22;32202;48.780;9.204;2023-03-23T09:50:31;17.70;60.40
46488;DHT22;32202;48.780;9.204;2023-03-23T09:55:23;17.40;60.70
46488;DHT22;32202;48.780;9.204;2023-03-23T09:57:54;17.40;60.50
46488;DHT22;32202;48.780;9.204;2023-03-23T10:00:24;17.40;60.90
46488;DHT22;32202;48.780;9.204;2023-03-23T10:05:32;17.80;60.10
46488;DHT22;32202;48.780;9.204;2023-03-23T10:07:59;17.70;60.50
46488;DHT22;32202;48.780;9.204;2023-03-23T10:15:42;18.40;59.40
46488;DHT22;32202;48.780;9.204;2023-03-23T10:18:15;18.30;59.30
46488;DHT22;32202;48.780;9.204;2023-03-23T10:23:24;18.50;58.60
46488;DHT22;32202;48.780;9.204;2023-03-23T10:28:43;18.90;57.70
46488;DHT22;32202;48.780;9.204;2023-03-23T10:31:17;18.90;58.00
46488;DHT22;32202;48.780;9.204;2023-03-23T10:33:48;19.20;57.60
46488;DHT22;32202;48.780;9.204;2023-03-23T10:39:12;19.50;56.80
46488;DHT22;32202;48.780;9.204;2023-03-23T10:41:38;19.50;56.50
46488;DHT22;32202;48.780;9.204;2023-03-23T10:44:09;19.00;57.60
46488;DHT22;32202;48.780;9.204;2023-03-23T10:46:45;18.80;58.70
46488;DHT22;32202;48.780;9.204;2023-03-23T10:49:17;19.00;58.40
46488;DHT22;32202;48.780;9.204;2023-03-23T10:51:47;18.90;58.70
46488;DHT22;32202;48.780;9.204;2023-03-23T10:54:23;18.90;58.80
46488;DHT22;32202;48.780;9.204;2023-03-23T10:56:50;19.00;59.50
46488;DHT22;32202;48.780;9.204;2023-03-23T10:59:19;19.30;58.00
46488;DHT22;32202;48.780;9.204;2023-03-23T11:01:47;19.30;58.00
46488;DHT22;32202;48.780;9.204;2023-03-23T11:04:14;19.60;58.20
46488;DHT22;32202;48.780;9.204;2023-03-23T11:06:43;20.00;56.90
46488;DHT22;32202;48.780;9.204;2023-03-23T11:09:11;20.40;56.00
46488;DHT22;32202;48.780;9.204;2023-03-23T11:11:38;20.60;55.50
46488;DHT22;32202;48.780;9.204;2023-03-23T11:16:49;20.40;55.10
46488;DHT22;32202;48.780;9.204;2023-03-23T11:19:20;20.00;55.20
46488;DHT22;32202;48.780;9.204;2023-03-23T11:21:53;19.40;57.30
46488;DHT22;32202;48.780;9.204;2023-03-23T11:24:26;18.90;57.90
46488;DHT22;32202;48.780;9.204;2023-03-23T11:26:52;18.60;58.90
46488;DHT22;32202;48.780;9.204;2023-03-23T11:29:19;18.50;59.70
46488;DHT22;32202;48.780;9.204;2023-03-23T11:32:05;18.60;59.60
46488;DHT22;32202;48.780;9.204;2023-03-23T11:34:40;18.70;59.00
46488;DHT22;32202;48.780;9.204;2023-03-23T11:42:20;19.10;58.70
46488;DHT22;32202;48.780;9.204;2023-03-23T11:44:46;19.70;57.60
46488;DHT22;32202;48.780;9.204;2023-03-23T11:47:20;19.80;57.40
46488;DHT22;32202;48.780;9.204;2023-03-23T11:49:51;19.90;56.80
46488;DHT22;32202;48.780;9.204;2023-03-23T11:55:08;20.20;56.00
46488;DHT22;32202;48.780;9.204;2023-03-23T11:57:35;20.30;56.10
46488;DHT22;32202;48.780;9.204;2023-03-23T12:00:01;20.40;55.70
46488;DHT22;32202;48.780;9.204;2023-03-23T12:05:21;20.40;54.80
46488;DHT22;32202;48.780;9.204;2023-03-23T12:10:38;20.40;54.40
46488;DHT22;32202;48.780;9.204;2023-03-23T12:13:17;20.10;54.40
46488;DHT22;32202;48.780;9.204;2023-03-23T12:18:43;19.80;55.00
46488;DHT22;32202;48.780;9.204;2023-03-23T12:23:45;19.40;54.90
46488;DHT22;32202;48.780;9.204;2023-03-23T12:26:19;19.40;55.00
46488;DHT22;32202;48.780;9.204;2023-03-23T12:28:50;19.40;54.90
46488;DHT22;32202;48.780;9.204;2023-03-23T12:36:27;19.40;55.10
46488;DHT22;32202;48.780;9.204;2023-03-23T12:44:27;19.60;54.40
46488;DHT22;32202;48.780;9.204;2023-03-23T12:47:07;19.90;54.00
46488;DHT22;32202;48.780;9.204;2023-03-23T12:49:53;20.20;53.70
46488;DHT22;32202;48.780;9.204;2023-03-23T12:52:24;20.60;52.80
46488;DHT22;32202;48.780;9.204;2023-03-23T12:54:54;20.80;52.40
46488;DHT22;32202;48.780;9.204;2023-03-23T12:57:23;20.60;52.60
46488;DHT22;32202;48.780;9.204;2023-03-23T12:59:54;20.50;53.00
46488;DHT22;32202;48.780;9.204;2023-03-23T13:04:55;20.20;53.20
46488;DHT22;32202;48.780;9.204;2023-03-23T13:07:24;20.00;54.00
46488;DHT22;32202;48.780;9.204;2023-03-23T13:09:55;19.90;54.60
46488;DHT22;32202;48.780;9.204;2023-03-23T13:12:23;20.00;55.00
46488;DHT22;32202;48.780;9.204;2023-03-23T13:14:53;20.10;54.40
46488;DHT22;32202;48.780;9.204;2023-03-23T13:27:59;20.40;54.40
46488;DHT22;32202;48.780;9.204;2023-03-23T13:30:26;20.20;54.20
46488;DHT22;32202;48.780;9.204;2023-03-23T13:33:01;20.40;54.60
46488;DHT22;32202;48.780;9.204;2023-03-23T13:35:28;20.60;54.00
46488;DHT22;32202;48.780;9.204;2023-03-23T13:37:58;20.50;53.50
46488;DHT22;32202;48.780;9.204;2023-03-23T13:40:25;20.40;53.90
46488;DHT22;32202;48.780;9.204;2023-03-23T13:42:56;20.40;53.80
46488;DHT22;32202;48.780;9.204;2023-03-23T13:50:53;20.70;53.30
46488;DHT22;32202;48.780;9.204;2023-03-23T13:53:43;20.50;52.90
46488;DHT22;32202;48.780;9.204;2023-03-23T13:56:16;20.30;53.10
46488;DHT22;32202;48.780;9.204;2023-03-23T13:58:49;20.10;53.80
46488;DHT22;32202;48.780;9.204;2023-03-23T14:01:31;20.00;53.50
46488;DHT22;32202;48.780;9.204;2023-03-23T14:03:58;19.70;54.20
46488;DHT22;32202;48.780;9.204;2023-03-23T14:06:26;19.50;54.50
46488;DHT22;32202;48.780;9.204;2023-03-23T14:09:02;19.40;54.90
46488;DHT22;32202;48.780;9.204;2023-03-23T14:11:30;19.40;55.10
46488;DHT22;32202;48.780;9.204;2023-03-23T14:14:03;19.40;54.90
46488;DHT22;32202;48.780;9.204;2023-03-23T14:19:02;19.40;55.20
46488;DHT22;32202;48.780;9.204;2023-03-23T14:21:33;19.70;54.90
46488;DHT22;32202;48.780;9.204;2023-03-23T14:24:02;19.70;54.80
46488;DHT22;32202;48.780;9.204;2023-03-23T14:26:28;19.80;54.40
46488;DHT22;32202;48.780;9.204;2023-03-23T14:28:53;19.60;53.90
46488;DHT22;32202;48.780;9.204;2023-03-23T14:31:26;19.40;53.90
46488;DHT22;32202;48.780;9.204;2023-03-23T14:33:52;19.20;54.30
46488;DHT22;32202;48.780;9.204;2023-03-23T14:38:47;19.30;54.40
46488;DHT22;32202;48.780;9.204;2023-03-23T14:41:12;19.40;54.20
46488;DHT22;32202;48.780;9.204;2023-03-23T14:43:38;19.50;53.90
46488;DHT22;32202;48.780;9.204;2023-03-23T14:46:05;19.50;53.70
46488;DHT22;32202;48.780;9.204;2023-03-23T14:48:31;19.60;53.60
46488;DHT22;32202;48.780;9.204;2023-03-23T14:50:58;19.50;53.60
46488;DHT22;32202;48.780;9.204;2023-03-23T14:53:26;19.40;53.70
46488;DHT22;32202;48.780;9.204;2023-03-23T14:55:54;19.30;54.00
46488;DHT22;32202;48.780;9.204;2023-03-23T14:58:21;19.10;54.00
46488;DHT22;32202;48.780;9.204;2023-03-23T15:00:50;19.10;53.70
46488;DHT22;32202;48.780;9.204;2023-03-23T15:03:17;19.10;53.90
46488;DHT22;32202;48.780;9.204;2023-03-23T15:05:46;19.20;53.90
46488;DHT22;32202;48.780;9.204;2023-03-23T15:08:19;19.30;53.60
46488;DHT22;32202;48.780;9.204;2023-03-23T15:10:56;19.30;53.60
46488;DHT22;32202;48.780;9.204;2023-03-23T15:13:24;19.30;53.50
46488;DHT22;32202;48.780;9.204;2023-03-23T15:15:50;19.20;53.40
46488;DHT22;32202;48.780;9.204;2023-03-23T15:18:27;19.20;53.20
46488;DHT22;32202;48.780;9.204;2023-03-23T15:20:53;19.00;53.50
46488;DHT22;32202;48.780;9.204;2023-03-23T15:23:26;19.10;53.20
46488;DHT22;32202;48.780;9.204;2023-03-23T15:25:53;19.10;52.90
46488;DHT22;32202;48.780;9.204;2023-03-23T15:28:28;19.10;52.70
46488;DHT22;32202;48.780;9.204;2023-03-23T15:30:54;19.10;52.60
46488;DHT22;32202;48.780;9.204;2023-03-23T15:33:21;19.00;52.30
46488;DHT22;32202;48.780;9.204;2023-03-23T15:35:55;19.00;52.60
46488;DHT22;32202;48.780;9.204;2023-03-23T15:38:22;18.90;52.60
46488;DHT22;32202;48.780;9.204;2023-03-23T15:40:49;18.80;53.30
46488;DHT22;32202;48.780;9.204;2023-03-23T15:43:20;18.80;53.00
46488;DHT22;32202;48.780;9.204;2023-03-23T15:45:54;18.80;53.10
46488;DHT22;32202;48.780;9.204;2023-03-23T15:48:21;18.60;53.10
46488;DHT22;32202;48.780;9.204;2023-03-23T15:50:47;18.50;53.30
46488;DHT22;32202;48.780;9.204;2023-03-23T15:55:45;18.40;53.70
46488;DHT22;32202;48.780;9.204;2023-03-23T15:58:11;18.30;53.80
46488;DHT22;32202;48.780;9.204;2023-03-23T16:00:38;18.30;54.00
46488;DHT22;32202;48.780;9.204;2023-03-23T16:03:05;18.40;54.30
46488;DHT22;32202;48.780;9.204;2023-03-23T16:05:31;18.30;54.40
46488;DHT22;32202;48.780;9.204;2023-03-23T16:07:57;18.30;54.30
46488;DHT22;32202;48.780;9.204;2023-03-23T16:10:23;18.30;55.00
46488;DHT22;32202;48.780;9.204;2023-03-23T16:12:49;18.20;55.00
46488;DHT22;32202;48.780;9.204;2023-03-23T16:15:14;18.10;54.60
46488;DHT22;32202;48.780;9.204;2023-03-23T16:17:40;18.00;54.80
46488;DHT22;32202;48.780;9.204;2023-03-23T16:20:13;18.00;55.00
46488;DHT22;32202;48.780;9.204;2023-03-23T16:22:39;17.90;55.20
46488;DHT22;32202;48.780;9.204;2023-03-23T16:25:06;17.90;55.30
46488;DHT22;32202;48.780;9.204;2023-03-23T16:27:31;17.90;55.50
46488;DHT22;32202;48.780;9.204;2023-03-23T16:29:57;17.80;55.40
46488;DHT22;32202;48.780;9.204;2023-03-23T16:32:25;17.80;55.20
46488;DHT22;32202;48.780;9.204;2023-03-23T16:34:50;17.80;55.40
46488;DHT22;32202;48.780;9.204;2023-03-23T16:37:16;17.70;55.70
46488;DHT22;32202;48.780;9.204;2023-03-23T16:39:41;17.70;55.80
46488;DHT22;32202;48.780;9.204;2023-03-23T16:42:07;17.70;56.00
46488;DHT22;32202;48.780;9.204;2023-03-23T16:44:32;17.60;56.00
46488;DHT22;32202;48.780;9.204;2023-03-23T16:46:58;17.60;56.10
46488;DHT22;32202;48.780;9.204;2023-03-23T16:49:23;17.50;56.30
46488;DHT22;32202;48.780;9.204;2023-03-23T16:51:49;17.50;56.50
46488;DHT22;32202;48.780;9.204;2023-03-23T16:54:18;17.40;56.60
46488;DHT22;32202;48.780;9.204;2023-03-23T16:56:43;17.40;57.10
46488;DHT22;32202;48.780;9.204;2023-03-23T16:59:11;17.40;57.30
46488;DHT22;32202;48.780;9.204;2023-03-23T17:01:37;17.30;57.50
46488;DHT22;32202;48.780;9.204;2023-03-23T17:04:02;17.30;57.60
46488;DHT22;32202;48.780;9.204;2023-03-23T17:06:28;17.30;57.70
46488;DHT22;32202;48.780;9.204;2023-03-23T17:08:53;17.20;57.80
46488;DHT22;32202;48.780;9.204;2023-03-23T17:11:19;17.20;57.70
46488;DHT22;32202;48.780;9.204;2023-03-23T17:13:44;17.20;57.80
46488;DHT22;32202;48.780;9.204;2023-03-23T17:16:10;17.20;58.00